Briefing drone pour Bonneville

Rechercher une autre localisation

Conditions de vol :


Nous sommes le : Dimanche 29 mai 2022
Il est 02:40 UTC (04:40 LT)

Lever de soleil : 03:22 UTC (05:22 LT)
Coucher de soleil : 19:40 UTC (21:40 LT)

Météo

L'essentiel des conditions de vol

VIGILANCE MÉTÉO FRANCE - Haute-Savoie (74)
Pas de vigilances particulieres
CARTE TEMSI
CARTES DES FRONTS
METAR de LFLP
LFLP 290230Z AUTO VRB03KT CAVOK 10/03 Q1011 NOSIG

Date d'émission: 29/05/2022
Heure d'émission: 02:30 UTC
Vent: Variable 3 KT (6 km/h)
Visibilité horizontale: > 10 km
Plafond : Plafond et visibilité OK (CAVOK)
Température: 10 °C
Point de rosée: 3 °C
Humidité: 62%
Pression (QNH): 1011 hPa
Conditions: Pas de changement dans les 2 heures (NOSIG)
TAF de LFLP
AMD LFLP 281900Z 2819/2915 CNL

Conditions prévues :

Heure d'émission : Bulletin éffectué le 28 à 19:00 UTC
Prévision : Valide du 28 a 19:00 UTC au 29 a 15:00 UTC
Nuages : à 0ft (0 m)
WEBCAM POUR BONNEVILLE

Réglementation

Voler en sécurité

CARTES AERONAUTIQUE 1/500.000
CARTES VAC (LFLP)
SUP AIP




Chargement des AIP...
NOTAM (BONNEVILLE + Terrain à proximité / FIR )




Chargement des NOTAMS...
CONTACT PREFECTURE 74


Avertissement : Les données mises à disposition sont indicatives. Oxygène Drone ne pourra être tenu responsable de dégâts causés aux biens et aux personnes.